createdAt,value
2016-12-29T00:00:30.321Z,0
2016-12-29T00:01:40.578Z,0
2016-12-29T00:02:50.435Z,0
2016-12-29T00:04:00.262Z,0
2016-12-29T00:05:10.511Z,0
2016-12-29T00:06:20.917Z,0
2016-12-29T00:07:30.781Z,0
2016-12-29T00:08:41.118Z,0
2016-12-29T00:09:50.982Z,0
2016-12-29T00:11:01.269Z,0
2016-12-29T00:12:10.707Z,0
2016-12-29T00:13:20.934Z,0
2016-12-29T00:14:30.796Z,0
2016-12-29T00:15:40.659Z,0
2016-12-29T00:16:50.914Z,0
2016-12-29T00:18:00.780Z,0
2016-12-29T00:19:11.063Z,0
2016-12-29T00:20:21.191Z,0
2016-12-29T00:21:31.028Z,0
2016-12-29T00:22:41.354Z,0
2016-12-29T00:23:51.252Z,0
2016-12-29T00:25:01.504Z,0
2016-12-29T00:26:11.827Z,0
2016-12-29T00:27:22.069Z,0
2016-12-29T00:28:32.305Z,0
2016-12-29T00:29:42.605Z,0
2016-12-29T00:30:52.440Z,0
2016-12-29T00:32:01.888Z,0
2016-12-29T00:33:11.811Z,0
2016-12-29T00:34:22.114Z,0
2016-12-29T00:35:32.011Z,0
2016-12-29T00:36:42.310Z,0
2016-12-29T00:37:52.540Z,0
2016-12-29T00:39:02.452Z,0
2016-12-29T00:40:12.718Z,0
2016-12-29T00:41:23.012Z,0
2016-12-29T00:42:32.941Z,0
2016-12-29T00:43:42.816Z,0
2016-12-29T00:44:52.679Z,0
2016-12-29T00:46:02.213Z,0
2016-12-29T00:47:12.099Z,0
2016-12-29T00:48:22.389Z,0
2016-12-29T00:49:32.307Z,0
2016-12-29T00:50:42.548Z,0
2016-12-29T00:51:51.977Z,0
2016-12-29T00:53:02.217Z,0
2016-12-29T00:54:12.456Z,0
2016-12-29T00:55:21.888Z,0
2016-12-29T00:56:31.741Z,0
2016-12-29T00:57:41.980Z,0
2016-12-29T00:58:51.821Z,0
2016-12-29T01:00:01.675Z,0
2016-12-29T01:01:11.972Z,0
2016-12-29T01:02:22.468Z,0
2016-12-29T01:03:31.913Z,0
2016-12-29T01:04:42.193Z,0
2016-12-29T01:05:52.119Z,0
2016-12-29T01:07:01.552Z,0
2016-12-29T01:08:11.842Z,0
2016-12-29T01:09:21.271Z,0
2016-12-29T01:10:30.360Z,0
2016-12-29T01:11:40.192Z,0
2016-12-29T01:12:50.431Z,0
2016-12-29T01:14:00.289Z,0
2016-12-29T01:15:10.658Z,0
2016-12-29T01:16:20.124Z,0
2016-12-29T01:17:30.103Z,0
2016-12-29T01:18:39.969Z,0
2016-12-29T01:19:50.404Z,0
2016-12-29T01:21:00.714Z,0
2016-12-29T01:22:10.949Z,0
2016-12-29T01:23:20.790Z,0
2016-12-29T01:24:31.055Z,0
2016-12-29T01:25:41.285Z,0
2016-12-29T01:26:50.753Z,0
2016-12-29T01:28:01.036Z,0
2016-12-29T01:29:11.401Z,0
2016-12-29T01:30:21.333Z,0
2016-12-29T01:31:31.237Z,0
2016-12-29T01:32:41.473Z,0
2016-12-29T01:33:51.749Z,0
2016-12-29T01:35:01.720Z,0
2016-12-29T01:36:11.184Z,0
2016-12-29T01:37:21.429Z,0
2016-12-29T01:38:31.313Z,0
2016-12-29T01:39:41.154Z,0
2016-12-29T01:40:51.061Z,0
2016-12-29T01:42:00.891Z,0
2016-12-29T01:43:11.197Z,0
2016-12-29T01:44:21.140Z,0
2016-12-29T01:45:30.978Z,0
2016-12-29T01:46:40.873Z,0
2016-12-29T01:47:51.144Z,0
2016-12-29T01:49:00.185Z,0
2016-12-29T01:50:09.618Z,0
2016-12-29T01:51:19.130Z,0
2016-12-29T01:52:29.409Z,0
2016-12-29T01:53:39.317Z,0
2016-12-29T01:54:49.545Z,0
2016-12-29T01:55:59.793Z,0
2016-12-29T01:57:10.049Z,0
2016-12-29T01:58:20.412Z,0
2016-12-29T01:59:30.321Z,0
2016-12-29T02:00:39.843Z,0
2016-12-29T02:01:50.134Z,0
2016-12-29T02:03:00.375Z,0
2016-12-29T02:04:09.807Z,0
2016-12-29T02:05:20.133Z,0
2016-12-29T02:06:29.559Z,0
2016-12-29T02:07:39.956Z,0
2016-12-29T02:08:49.963Z,0
2016-12-29T02:10:00.294Z,0
2016-12-29T02:11:10.143Z,0
2016-12-29T02:12:19.604Z,0
2016-12-29T02:13:29.557Z,0
2016-12-29T02:14:39.788Z,0
2016-12-29T02:15:50.039Z,0
2016-12-29T02:16:59.878Z,0
2016-12-29T02:18:09.317Z,0
2016-12-29T02:19:19.296Z,0
2016-12-29T02:20:29.129Z,0
2016-12-29T02:21:38.971Z,0
2016-12-29T02:22:49.200Z,0
2016-12-29T02:23:59.139Z,0
2016-12-29T02:25:09.381Z,0
2016-12-29T02:26:19.616Z,0
2016-12-29T02:27:29.448Z,0
2016-12-29T02:28:39.817Z,0
2016-12-29T02:29:50.087Z,0
2016-12-29T02:30:59.107Z,0
2016-12-29T02:32:08.569Z,0
2016-12-29T02:33:18.008Z,0
2016-12-29T02:34:27.877Z,0
2016-12-29T02:35:37.830Z,0
2016-12-29T02:36:47.291Z,0
2016-12-29T02:37:57.552Z,0
2016-12-29T02:39:07.829Z,0
2016-12-29T02:40:17.665Z,0
2016-12-29T02:41:28.173Z,0
2016-12-29T02:42:38.453Z,0
2016-12-29T02:44:20.057Z,0
2016-12-29T02:45:29.527Z,0
2016-12-29T02:46:39.943Z,0
2016-12-29T02:47:49.771Z,0
2016-12-29T02:49:00.042Z,0
2016-12-29T02:50:09.875Z,0
2016-12-29T02:51:19.716Z,0
2016-12-29T02:52:29.543Z,0
2016-12-29T02:53:39.784Z,0
2016-12-29T02:54:50.031Z,0
2016-12-29T02:55:59.465Z,0
2016-12-29T02:57:09.795Z,0
2016-12-29T02:58:19.771Z,0
2016-12-29T02:59:29.606Z,0
2016-12-29T03:00:39.468Z,0
2016-12-29T03:01:48.969Z,0
2016-12-29T03:02:58.848Z,0
2016-12-29T03:04:08.705Z,0
2016-12-29T03:05:18.966Z,0
2016-12-29T03:06:28.814Z,0
2016-12-29T03:07:39.181Z,0
2016-12-29T03:08:49.703Z,0
2016-12-29T03:09:59.615Z,0
2016-12-29T03:11:09.491Z,0
2016-12-29T03:12:19.718Z,0
2016-12-29T03:13:29.578Z,0
2016-12-29T03:14:39.859Z,0
2016-12-29T03:15:50.104Z,0
2016-12-29T03:17:00.052Z,0
2016-12-29T03:18:10.366Z,0
2016-12-29T03:19:20.634Z,0
2016-12-29T03:20:30.862Z,0
2016-12-29T03:21:41.087Z,0
2016-12-29T03:22:51.374Z,0
2016-12-29T03:24:01.628Z,0
2016-12-29T03:25:11.460Z,0
2016-12-29T03:26:21.762Z,0
2016-12-29T03:27:32.096Z,0
2016-12-29T03:28:42.333Z,0
2016-12-29T03:29:52.200Z,0
2016-12-29T03:31:02.071Z,0
2016-12-29T03:32:12.294Z,0
2016-12-29T03:33:22.799Z,0
2016-12-29T03:34:32.741Z,0
2016-12-29T03:35:42.989Z,0
2016-12-29T03:36:52.872Z,0
2016-12-29T03:38:02.721Z,0
2016-12-29T03:39:12.606Z,0
2016-12-29T03:40:22.485Z,0
2016-12-29T03:41:32.714Z,0
2016-12-29T03:42:42.134Z,0
2016-12-29T03:43:52.382Z,0
2016-12-29T03:45:01.821Z,0
2016-12-29T03:46:12.164Z,0
2016-12-29T03:47:22.513Z,0
2016-12-29T03:48:32.004Z,0
2016-12-29T03:49:41.920Z,0
2016-12-29T03:50:51.796Z,0
2016-12-29T03:52:01.242Z,0
2016-12-29T03:53:11.109Z,0
2016-12-29T03:54:20.672Z,0
2016-12-29T03:55:30.911Z,0
2016-12-29T03:56:41.147Z,0
2016-12-29T03:57:50.990Z,0
2016-12-29T03:59:01.241Z,0
2016-12-29T04:00:11.488Z,0
2016-12-29T04:01:21.351Z,0
2016-12-29T04:02:31.200Z,0
2016-12-29T04:03:40.293Z,0
2016-12-29T04:04:50.206Z,0
2016-12-29T04:06:00.489Z,0
2016-12-29T04:07:10.731Z,0
2016-12-29T04:08:19.754Z,0
2016-12-29T04:09:29.987Z,0
2016-12-29T04:10:39.827Z,0
2016-12-29T04:11:49.703Z,0
2016-12-29T04:12:59.945Z,0
2016-12-29T04:14:09.388Z,0
2016-12-29T04:15:19.679Z,0
2016-12-29T04:16:29.130Z,0
2016-12-29T04:17:38.994Z,0
2016-12-29T04:18:48.822Z,0
2016-12-29T04:19:58.326Z,0
2016-12-29T04:21:08.574Z,0
2016-12-29T04:22:18.012Z,0
2016-12-29T04:23:27.905Z,0
2016-12-29T04:24:38.131Z,0
2016-12-29T04:25:48.368Z,0
2016-12-29T04:26:58.230Z,0
2016-12-29T04:28:08.456Z,0
2016-12-29T04:29:17.948Z,0
2016-12-29T04:30:27.520Z,0
2016-12-29T04:31:37.768Z,0
2016-12-29T04:32:47.630Z,0
2016-12-29T04:33:57.465Z,0
2016-12-29T04:35:07.696Z,0
2016-12-29T04:36:17.641Z,0
2016-12-29T04:37:27.529Z,0
2016-12-29T04:38:37.763Z,0
2016-12-29T04:39:47.839Z,0
2016-12-29T04:40:58.074Z,0
2016-12-29T04:42:07.932Z,0
2016-12-29T04:43:18.166Z,0
2016-12-29T04:44:28.472Z,0
2016-12-29T04:45:38.477Z,0
2016-12-29T04:46:48.748Z,0
2016-12-29T04:47:58.981Z,0
2016-12-29T04:49:08.479Z,0
2016-12-29T04:50:18.323Z,0
2016-12-29T04:51:28.625Z,0
2016-12-29T04:52:37.704Z,0
2016-12-29T04:53:47.657Z,0
2016-12-29T04:54:57.941Z,0
2016-12-29T04:56:08.220Z,0
2016-12-29T04:57:18.444Z,0
2016-12-29T04:58:28.293Z,0
2016-12-29T04:59:38.637Z,0
2016-12-29T05:00:48.467Z,0
2016-12-29T05:01:58.767Z,0
2016-12-29T05:03:09.037Z,0
2016-12-29T05:04:19.269Z,0
2016-12-29T05:05:29.599Z,0
2016-12-29T05:06:39.888Z,0
2016-12-29T05:07:50.162Z,0
2016-12-29T05:08:59.997Z,0
2016-12-29T05:10:10.229Z,0
2016-12-29T05:11:20.495Z,0
2016-12-29T05:12:30.323Z,0
2016-12-29T05:13:40.161Z,0
2016-12-29T05:14:50.428Z,0
2016-12-29T05:16:00.275Z,0
2016-12-29T05:17:10.519Z,0
2016-12-29T05:18:20.000Z,0
2016-12-29T05:19:30.235Z,0
2016-12-29T05:20:40.493Z,0
2016-12-29T05:21:50.732Z,0
2016-12-29T05:22:59.763Z,0
2016-12-29T05:24:09.222Z,0
2016-12-29T05:25:19.522Z,0
2016-12-29T05:26:29.353Z,0
2016-12-29T05:27:39.733Z,0
2016-12-29T05:28:49.991Z,0
2016-12-29T05:29:59.916Z,0
2016-12-29T05:31:10.183Z,0
2016-12-29T05:32:20.457Z,0
2016-12-29T05:33:30.704Z,0
2016-12-29T05:34:40.929Z,0
2016-12-29T05:35:50.882Z,0
2016-12-29T05:37:00.745Z,0
2016-12-29T05:38:10.213Z,0
2016-12-29T05:39:20.488Z,0
2016-12-29T05:40:29.513Z,0
2016-12-29T05:41:38.960Z,0
2016-12-29T05:42:48.845Z,0
2016-12-29T05:43:57.874Z,0
2016-12-29T05:45:07.731Z,0
2016-12-29T05:46:17.983Z,0
2016-12-29T05:47:27.851Z,0
2016-12-29T05:48:37.703Z,0
2016-12-29T05:49:47.540Z,0
2016-12-29T05:50:57.006Z,0
2016-12-29T05:52:07.447Z,0
2016-12-29T05:53:17.344Z,0
2016-12-29T05:54:26.771Z,0
2016-12-29T05:55:37.050Z,0
2016-12-29T05:56:46.586Z,0
2016-12-29T05:57:56.426Z,0
2016-12-29T05:59:06.252Z,0
2016-12-29T06:00:16.093Z,0
2016-12-29T06:01:26.387Z,0
2016-12-29T06:02:36.249Z,0
2016-12-29T06:03:46.531Z,0
2016-12-29T06:04:55.990Z,0
2016-12-29T06:06:06.305Z,0
2016-12-29T06:07:16.580Z,0
2016-12-29T06:08:26.829Z,0
2016-12-29T06:09:37.199Z,0
2016-12-29T06:10:47.049Z,0
2016-12-29T06:11:56.895Z,0
2016-12-29T06:13:07.140Z,0
2016-12-29T06:14:17.000Z,0
2016-12-29T06:15:27.286Z,0
2016-12-29T06:16:37.615Z,0
2016-12-29T06:17:47.906Z,0
2016-12-29T06:18:57.878Z,0
2016-12-29T06:20:07.739Z,0
2016-12-29T06:21:17.557Z,0
2016-12-29T06:22:27.397Z,0
2016-12-29T06:23:37.277Z,0
2016-12-29T06:24:46.735Z,0
2016-12-29T06:25:56.963Z,0
2016-12-29T06:27:06.393Z,0
2016-12-29T06:28:16.655Z,0
2016-12-29T06:29:26.950Z,0
2016-12-29T06:30:37.285Z,0
2016-12-29T06:31:47.529Z,0
2016-12-29T06:32:57.369Z,0
2016-12-29T06:34:07.667Z,0
2016-12-29T06:35:17.519Z,0
2016-12-29T06:36:26.978Z,0
2016-12-29T06:37:37.233Z,0
2016-12-29T06:38:47.490Z,0
2016-12-29T06:39:57.756Z,0
2016-12-29T06:41:07.980Z,0
2016-12-29T06:42:17.451Z,0
2016-12-29T06:43:27.702Z,4
2016-12-29T06:44:37.964Z,4
2016-12-29T06:45:47.827Z,0
2016-12-29T06:46:57.677Z,0
2016-12-29T06:48:07.988Z,4
2016-12-29T06:49:18.220Z,4
2016-12-29T06:50:28.116Z,4
2016-12-29T06:51:38.368Z,4
2016-12-29T06:52:48.602Z,4
2016-12-29T06:53:58.453Z,8
2016-12-29T06:55:08.468Z,4
2016-12-29T06:56:18.803Z,8
2016-12-29T06:57:28.246Z,8
2016-12-29T06:58:37.712Z,12
2016-12-29T06:59:47.971Z,16
2016-12-29T07:00:57.959Z,16
2016-12-29T07:02:07.879Z,20
2016-12-29T07:03:18.189Z,24
2016-12-29T07:04:28.070Z,28
2016-12-29T07:05:38.314Z,36
2016-12-29T07:06:48.571Z,36
2016-12-29T07:07:58.450Z,44
2016-12-29T07:09:08.320Z,52
2016-12-29T07:10:18.573Z,60
2016-12-29T07:11:28.013Z,64
2016-12-29T07:12:37.920Z,68
2016-12-29T07:13:47.372Z,76
2016-12-29T07:14:57.625Z,88
2016-12-29T07:16:07.889Z,92
2016-12-29T07:17:17.735Z,104
2016-12-29T07:18:28.045Z,116
2016-12-29T07:19:38.329Z,128
2016-12-29T07:20:48.185Z,140
2016-12-29T07:21:57.730Z,152
2016-12-29T07:23:07.614Z,160
2016-12-29T07:24:17.863Z,176
2016-12-29T07:25:26.904Z,188
2016-12-29T07:26:37.133Z,204
2016-12-29T07:27:47.417Z,212
2016-12-29T07:28:57.785Z,216
2016-12-29T07:30:07.264Z,220
2016-12-29T07:31:17.132Z,224
2016-12-29T07:32:27.019Z,232
2016-12-29T07:33:37.283Z,252
2016-12-29T07:34:47.213Z,268
2016-12-29T07:35:56.704Z,288
2016-12-29T07:37:06.581Z,304
2016-12-29T07:38:16.434Z,320
2016-12-29T07:39:26.689Z,332
2016-12-29T07:40:36.525Z,356
2016-12-29T07:41:46.381Z,376
2016-12-29T07:42:56.723Z,408
2016-12-29T07:44:07.115Z,456
2016-12-29T07:45:16.602Z,508
2016-12-29T07:46:26.460Z,552
2016-12-29T07:47:36.727Z,588
2016-12-29T07:48:47.027Z,616
2016-12-29T07:49:56.889Z,652
2016-12-29T07:51:06.771Z,704
2016-12-29T07:52:15.838Z,740
2016-12-29T07:53:26.090Z,780
2016-12-29T07:54:35.940Z,820
2016-12-29T07:55:45.373Z,844
2016-12-29T07:56:55.749Z,864
2016-12-29T07:58:05.657Z,888
2016-12-29T07:59:16.008Z,908
2016-12-29T08:00:26.277Z,952
2016-12-29T08:01:36.525Z,996
2016-12-29T08:02:46.577Z,1024
2016-12-29T08:03:56.946Z,1032
2016-12-29T08:05:06.777Z,1032
2016-12-29T08:06:16.617Z,1040
2016-12-29T08:07:26.070Z,1044
2016-12-29T08:08:36.382Z,1048
2016-12-29T08:09:46.665Z,1088
2016-12-29T08:10:56.290Z,1108
2016-12-29T08:12:06.114Z,1120
2016-12-29T08:13:16.045Z,1148
2016-12-29T08:14:25.922Z,1188
2016-12-29T08:15:35.373Z,1232
2016-12-29T08:16:45.196Z,1256
2016-12-29T08:17:55.060Z,1304
2016-12-29T08:19:05.292Z,1344
2016-12-29T08:20:15.564Z,1396
2016-12-29T08:21:25.023Z,1472
2016-12-29T08:22:35.305Z,1568
2016-12-29T08:23:45.592Z,1660
2016-12-29T08:24:55.521Z,1756
2016-12-29T08:26:05.365Z,1856
2016-12-29T08:27:15.260Z,1972
2016-12-29T08:28:25.184Z,2044
2016-12-29T08:29:35.458Z,2104
2016-12-29T08:30:44.915Z,2164
2016-12-29T08:31:54.942Z,2140
2016-12-29T08:33:05.233Z,2160
2016-12-29T08:34:15.105Z,2188
2016-12-29T08:35:25.462Z,2236
2016-12-29T08:36:35.722Z,2308
2016-12-29T08:37:46.000Z,2360
2016-12-29T08:38:55.955Z,2384
2016-12-29T08:40:06.253Z,2448
2016-12-29T08:41:16.096Z,2560
2016-12-29T08:42:26.352Z,2628
2016-12-29T08:43:36.254Z,2784
2016-12-29T08:44:46.554Z,3096
2016-12-29T08:45:56.049Z,3492
2016-12-29T08:47:05.893Z,3748
2016-12-29T08:48:15.404Z,3828
2016-12-29T08:49:25.333Z,3860
2016-12-29T08:50:35.573Z,3760
2016-12-29T08:51:45.533Z,3624
2016-12-29T08:52:55.031Z,3584
2016-12-29T08:54:05.288Z,3724
2016-12-29T08:55:15.668Z,4036
2016-12-29T08:56:26.001Z,4420
2016-12-29T08:57:35.916Z,4828
2016-12-29T08:58:46.220Z,5092
2016-12-29T08:59:55.695Z,5104
2016-12-29T09:01:05.530Z,5004
2016-12-29T09:02:15.802Z,5136
2016-12-29T09:03:26.073Z,5428
2016-12-29T09:04:35.564Z,5488
2016-12-29T09:05:45.469Z,5552
2016-12-29T09:06:55.763Z,5704
2016-12-29T09:08:05.655Z,6032
2016-12-29T09:09:15.947Z,6308
2016-12-29T09:10:26.007Z,6292
2016-12-29T09:11:36.277Z,6392
2016-12-29T09:12:46.136Z,6772
2016-12-29T09:13:55.972Z,7188
2016-12-29T09:15:06.247Z,7708
2016-12-29T09:16:16.535Z,8088
2016-12-29T09:17:26.471Z,7912
2016-12-29T09:18:36.465Z,7340
2016-12-29T09:19:46.708Z,6896
2016-12-29T09:20:56.607Z,6912
2016-12-29T09:22:06.841Z,7100
2016-12-29T09:23:16.702Z,7268
2016-12-29T09:24:27.007Z,7480
2016-12-29T09:25:36.852Z,7704
2016-12-29T09:26:47.101Z,7868
2016-12-29T09:27:57.350Z,8024
2016-12-29T09:29:07.678Z,8104
2016-12-29T09:30:18.020Z,8156
2016-12-29T09:31:27.478Z,8452
2016-12-29T09:32:37.340Z,8808
2016-12-29T09:33:46.808Z,9268
2016-12-29T09:34:57.114Z,9536
2016-12-29T09:36:07.010Z,9744
2016-12-29T09:37:16.842Z,9960
2016-12-29T09:38:26.682Z,10156
2016-12-29T09:39:36.914Z,10092
2016-12-29T09:40:46.384Z,9800
2016-12-29T09:41:56.311Z,9464
2016-12-29T09:43:06.547Z,9468
2016-12-29T09:44:16.454Z,9884
2016-12-29T09:45:26.324Z,9844
2016-12-29T09:46:36.238Z,10724
2016-12-29T09:47:45.814Z,11256
2016-12-29T09:48:56.054Z,12936
2016-12-29T09:50:05.947Z,13224
2016-12-29T09:51:16.269Z,13120
2016-12-29T09:52:26.503Z,12508
2016-12-29T09:53:36.773Z,11944
2016-12-29T09:54:46.608Z,11312
2016-12-29T09:55:56.854Z,10412
2016-12-29T09:57:06.333Z,9460
2016-12-29T09:58:16.269Z,8544
2016-12-29T09:59:26.531Z,7848
2016-12-29T10:00:35.189Z,7660
2016-12-29T10:01:45.430Z,7720
2016-12-29T10:02:55.766Z,7808
2016-12-29T10:04:05.206Z,7988
2016-12-29T10:05:15.490Z,8388
2016-12-29T10:06:25.376Z,9080
2016-12-29T10:07:34.836Z,11896
2016-12-29T10:08:44.748Z,19360
2016-12-29T10:09:54.993Z,21344
2016-12-29T10:11:05.345Z,19264
2016-12-29T10:12:14.961Z,19392
2016-12-29T10:13:25.305Z,19872
2016-12-29T10:14:35.192Z,21728
2016-12-29T10:15:45.457Z,28992
2016-12-29T10:16:55.777Z,33152
2016-12-29T10:18:06.021Z,34752
2016-12-29T10:19:15.863Z,35776
2016-12-29T10:20:26.126Z,36544
2016-12-29T10:21:35.978Z,35104
2016-12-29T10:22:45.076Z,35232
2016-12-29T10:23:54.901Z,37248
2016-12-29T10:25:04.435Z,34496
2016-12-29T10:26:14.700Z,39040
2016-12-29T10:27:25.012Z,37184
2016-12-29T10:28:34.912Z,36128
2016-12-29T10:29:44.780Z,41120
2016-12-29T10:30:55.017Z,37216
2016-12-29T10:32:05.333Z,36608
2016-12-29T10:33:15.690Z,32960
2016-12-29T10:34:25.700Z,33024
2016-12-29T10:35:35.990Z,34912
2016-12-29T10:36:45.437Z,34816
2016-12-29T10:37:55.719Z,39712
2016-12-29T10:39:05.563Z,36192
2016-12-29T10:40:15.060Z,36928
2016-12-29T10:41:25.347Z,40544
2016-12-29T10:42:35.207Z,36928
2016-12-29T10:43:45.554Z,36288
2016-12-29T10:44:55.809Z,40192
2016-12-29T10:46:05.681Z,35584
2016-12-29T10:47:15.956Z,37344
2016-12-29T10:48:25.939Z,39872
2016-12-29T10:49:35.415Z,34080
2016-12-29T10:50:45.374Z,30176
2016-12-29T10:51:55.906Z,29600
2016-12-29T10:53:05.762Z,25408
2016-12-29T10:54:15.623Z,23424
2016-12-29T10:55:25.905Z,26816
2016-12-29T10:56:35.421Z,31840
2016-12-29T10:57:44.863Z,38848
2016-12-29T10:58:54.722Z,38752
2016-12-29T11:00:04.636Z,38688
2016-12-29T11:01:14.476Z,38400
2016-12-29T11:02:23.980Z,38368
2016-12-29T11:03:33.821Z,38816
2016-12-29T11:04:44.139Z,40576
2016-12-29T11:05:54.463Z,42432
2016-12-29T11:07:04.720Z,43200
2016-12-29T11:08:14.977Z,41984
2016-12-29T11:09:24.830Z,40800
2016-12-29T11:10:35.096Z,41664
2016-12-29T11:11:44.599Z,43392
2016-12-29T11:12:54.874Z,43808
2016-12-29T11:14:04.380Z,47968
2016-12-29T11:15:14.692Z,45696
2016-12-29T11:16:24.138Z,47648
2016-12-29T11:17:34.447Z,49120
2016-12-29T11:18:44.728Z,42912
2016-12-29T11:19:55.124Z,43392
2016-12-29T11:21:05.375Z,43968
2016-12-29T11:22:15.614Z,42944
2016-12-29T11:23:25.165Z,39040
2016-12-29T11:24:35.486Z,33216
2016-12-29T11:25:44.965Z,32384
2016-12-29T11:26:55.014Z,32256
2016-12-29T11:28:05.331Z,34208
2016-12-29T11:29:15.585Z,24544
2016-12-29T11:30:25.978Z,21216
2016-12-29T11:31:35.926Z,19200
2016-12-29T11:32:46.232Z,13400
2016-12-29T11:33:56.553Z,12092
2016-12-29T11:35:06.816Z,12168
2016-12-29T11:36:16.697Z,11432
2016-12-29T11:37:26.992Z,9744
2016-12-29T11:38:36.972Z,6732
2016-12-29T11:39:46.415Z,8988
2016-12-29T11:40:55.891Z,8384
2016-12-29T11:42:05.752Z,8264
2016-12-29T11:43:15.638Z,8404
2016-12-29T11:44:25.956Z,8360
2016-12-29T11:45:35.011Z,8996
2016-12-29T11:46:44.849Z,9552
2016-12-29T11:47:55.081Z,6824
2016-12-29T11:49:05.427Z,9228
2016-12-29T11:50:14.952Z,9388
2016-12-29T11:51:24.797Z,9172
2016-12-29T11:52:35.064Z,6936
2016-12-29T11:53:44.995Z,9568
2016-12-29T11:54:55.249Z,9428
2016-12-29T11:56:05.526Z,9220
2016-12-29T11:57:15.478Z,8956
2016-12-29T11:58:25.404Z,9140
2016-12-29T11:59:35.655Z,8948
2016-12-29T12:00:45.903Z,8572
2016-12-29T12:01:55.362Z,8612
2016-12-29T12:03:05.657Z,8224
2016-12-29T12:04:16.043Z,8524
2016-12-29T12:05:26.074Z,8844
2016-12-29T12:06:35.909Z,8464
2016-12-29T12:07:45.871Z,8352
2016-12-29T12:08:56.160Z,8300
2016-12-29T12:10:06.411Z,8188
2016-12-29T12:11:16.687Z,7872
2016-12-29T12:12:26.551Z,7612
2016-12-29T12:13:36.901Z,7404
2016-12-29T12:14:46.775Z,7216
2016-12-29T12:15:57.017Z,7044
2016-12-29T12:17:07.333Z,6904
2016-12-29T12:18:17.216Z,6756
2016-12-29T12:19:27.453Z,6644
2016-12-29T12:20:37.374Z,6616
2016-12-29T12:21:47.696Z,6640
2016-12-29T12:22:57.996Z,6652
2016-12-29T12:24:08.241Z,6648
2016-12-29T12:25:18.212Z,6628
2016-12-29T12:26:28.528Z,6568
2016-12-29T12:27:38.378Z,6468
2016-12-29T12:28:48.278Z,6404
2016-12-29T12:29:58.561Z,6320
2016-12-29T12:31:08.838Z,6244
2016-12-29T12:32:19.225Z,6228
2016-12-29T12:33:29.461Z,6212
2016-12-29T12:34:39.783Z,6208
2016-12-29T12:35:50.071Z,6200
2016-12-29T12:36:59.931Z,6224
2016-12-29T12:38:09.778Z,6104
2016-12-29T12:39:20.018Z,5960
2016-12-29T12:40:29.079Z,5916
2016-12-29T12:41:38.927Z,5912
2016-12-29T12:42:48.778Z,5832
2016-12-29T12:43:59.149Z,5768
2016-12-29T12:45:09.405Z,5768
2016-12-29T12:46:19.341Z,5780
2016-12-29T12:47:28.868Z,5760
2016-12-29T12:48:39.227Z,5700
2016-12-29T12:49:49.526Z,5656
2016-12-29T12:51:31.581Z,5528
2016-12-29T12:52:41.825Z,5476
2016-12-29T12:53:52.112Z,5500
2016-12-29T12:55:01.975Z,5504
2016-12-29T12:56:11.882Z,5476
2016-12-29T12:57:23.008Z,5468
2016-12-29T12:58:32.893Z,5484
2016-12-29T12:59:42.431Z,5508
2016-12-29T13:00:52.307Z,5472
2016-12-29T13:02:02.597Z,5420
2016-12-29T13:03:12.472Z,4944
2016-12-29T13:04:21.900Z,5064
2016-12-29T13:05:31.330Z,5072
2016-12-29T13:06:41.680Z,5040
2016-12-29T13:07:51.655Z,5024
2016-12-29T13:09:01.119Z,5060
2016-12-29T13:10:11.134Z,5012
2016-12-29T13:11:20.180Z,4952
2016-12-29T13:12:30.017Z,4876
2016-12-29T13:13:40.355Z,4792
2016-12-29T13:14:50.628Z,4708
2016-12-29T13:15:59.761Z,4644
2016-12-29T13:17:09.218Z,4612
2016-12-29T13:18:19.208Z,4596
2016-12-29T13:19:29.052Z,4508
2016-12-29T13:20:38.918Z,4452
2016-12-29T13:21:49.187Z,4380
2016-12-29T13:22:59.028Z,4300
2016-12-29T13:24:09.056Z,4252
2016-12-29T13:25:18.915Z,4212
2016-12-29T13:26:29.214Z,4176
2016-12-29T13:27:39.592Z,4104
2016-12-29T13:28:49.851Z,4092
2016-12-29T13:29:59.730Z,4052
2016-12-29T13:31:09.586Z,4008
2016-12-29T13:32:19.559Z,3972
2016-12-29T13:33:29.905Z,3928
2016-12-29T13:34:40.221Z,3868
2016-12-29T13:35:49.714Z,3808
2016-12-29T13:37:00.159Z,3764
2016-12-29T13:38:10.410Z,3720
2016-12-29T13:39:19.888Z,3684
2016-12-29T13:40:30.136Z,3644
2016-12-29T13:41:39.585Z,3600
2016-12-29T13:42:49.955Z,3556
2016-12-29T13:44:00.235Z,3516
2016-12-29T13:45:10.120Z,3484
2016-12-29T13:46:20.394Z,3448
2016-12-29T13:47:30.709Z,3428
2016-12-29T13:48:40.956Z,3404
2016-12-29T13:49:50.842Z,3384
2016-12-29T13:51:01.104Z,3352
2016-12-29T13:52:11.396Z,3316
2016-12-29T13:53:21.305Z,3276
2016-12-29T13:54:31.535Z,3232
2016-12-29T13:55:41.496Z,3184
2016-12-29T13:56:51.745Z,3140
2016-12-29T13:58:02.066Z,3092
2016-12-29T13:59:12.354Z,3044
2016-12-29T14:00:22.184Z,3000
2016-12-29T14:01:32.124Z,2960
2016-12-29T14:02:42.000Z,2920
2016-12-29T14:03:51.853Z,2884
2016-12-29T14:05:02.100Z,2844
2016-12-29T14:06:11.549Z,2808
2016-12-29T14:07:21.409Z,2776
2016-12-29T14:08:31.927Z,2748
2016-12-29T14:09:42.312Z,2716
2016-12-29T14:10:52.626Z,2680
2016-12-29T14:12:02.869Z,2644
2016-12-29T14:13:12.320Z,2608
2016-12-29T14:14:21.360Z,2564
2016-12-29T14:15:31.293Z,2520
2016-12-29T14:16:41.616Z,2472
2016-12-29T14:17:51.971Z,2428
2016-12-29T14:19:01.569Z,2380
2016-12-29T14:20:11.605Z,2324
2016-12-29T14:21:21.444Z,2276
2016-12-29T14:22:30.885Z,2224
2016-12-29T14:23:41.301Z,2180
2016-12-29T14:24:51.171Z,2132
2016-12-29T14:26:01.525Z,2088
2016-12-29T14:27:11.778Z,2044
2016-12-29T14:28:21.814Z,2000
2016-12-29T14:29:31.763Z,1952
2016-12-29T14:30:42.089Z,1900
2016-12-29T14:31:51.921Z,1856
2016-12-29T14:33:02.075Z,1804
2016-12-29T14:34:12.463Z,1760
2016-12-29T14:35:22.320Z,1712
2016-12-29T14:36:32.704Z,1668
2016-12-29T14:37:42.542Z,1624
2016-12-29T14:38:52.412Z,1576
2016-12-29T14:40:02.267Z,1528
2016-12-29T14:41:12.770Z,1480
2016-12-29T14:42:23.043Z,1432
2016-12-29T14:43:32.511Z,1388
2016-12-29T14:44:42.377Z,1340
2016-12-29T14:45:52.246Z,1292
2016-12-29T14:47:02.113Z,1244
2016-12-29T14:48:11.965Z,1196
2016-12-29T14:49:22.107Z,1148
2016-12-29T14:50:32.347Z,1100
2016-12-29T14:51:41.817Z,1056
2016-12-29T14:52:51.806Z,1004
2016-12-29T14:54:02.065Z,956
2016-12-29T14:55:11.913Z,908
2016-12-29T14:56:21.353Z,860
2016-12-29T14:57:31.643Z,816
2016-12-29T14:58:41.929Z,768
2016-12-29T14:59:51.772Z,724
2016-12-29T15:01:01.613Z,680
2016-12-29T15:02:11.523Z,640
2016-12-29T15:03:21.035Z,600
2016-12-29T15:04:31.306Z,560
2016-12-29T15:05:41.147Z,520
2016-12-29T15:06:51.447Z,484
2016-12-29T15:08:01.372Z,448
2016-12-29T15:09:11.672Z,412
2016-12-29T15:10:21.932Z,380
2016-12-29T15:11:31.802Z,352
2016-12-29T15:12:42.162Z,320
2016-12-29T15:13:52.088Z,292
2016-12-29T15:15:01.565Z,268
2016-12-29T15:16:11.445Z,240
2016-12-29T15:17:21.868Z,220
2016-12-29T15:18:32.334Z,196
2016-12-29T15:19:42.185Z,176
2016-12-29T15:20:52.053Z,156
2016-12-29T15:22:02.544Z,140
2016-12-29T15:23:12.853Z,124
2016-12-29T15:24:23.126Z,108
2016-12-29T15:25:32.984Z,96
2016-12-29T15:26:42.825Z,84
2016-12-29T15:27:53.152Z,72
2016-12-29T15:29:03.306Z,64
2016-12-29T15:30:13.166Z,56
2016-12-29T15:31:22.907Z,44
2016-12-29T15:32:32.912Z,40
2016-12-29T15:33:42.892Z,32
2016-12-29T15:34:52.480Z,28
2016-12-29T15:36:02.759Z,24
2016-12-29T15:37:12.325Z,20
2016-12-29T15:38:22.722Z,20
2016-12-29T15:39:32.228Z,12
2016-12-29T15:40:42.658Z,12
2016-12-29T15:41:51.758Z,12
2016-12-29T15:43:01.791Z,8
2016-12-29T15:44:12.038Z,8
2016-12-29T15:45:21.891Z,8
2016-12-29T15:46:32.191Z,4
2016-12-29T15:47:42.109Z,4
2016-12-29T15:48:52.608Z,4
2016-12-29T15:50:02.856Z,4
2016-12-29T15:51:13.236Z,4
2016-12-29T15:52:22.797Z,4
2016-12-29T15:53:32.749Z,4
2016-12-29T15:54:42.310Z,4
2016-12-29T15:55:52.564Z,0
2016-12-29T15:57:02.482Z,0
2016-12-29T15:58:12.936Z,0
2016-12-29T15:59:23.210Z,0
2016-12-29T16:00:33.790Z,0
2016-12-29T16:01:43.972Z,4
2016-12-29T16:02:54.277Z,4
2016-12-29T16:04:04.622Z,4
2016-12-29T16:05:14.897Z,4
2016-12-29T16:06:24.913Z,4
2016-12-29T16:07:35.276Z,4
2016-12-29T16:08:45.389Z,4
2016-12-29T16:09:55.816Z,4
2016-12-29T16:11:06.176Z,4
2016-12-29T16:12:16.678Z,4
2016-12-29T16:13:26.996Z,4
2016-12-29T16:14:37.071Z,4
2016-12-29T16:15:46.595Z,4
2016-12-29T16:16:56.623Z,4
2016-12-29T16:18:07.025Z,4
2016-12-29T16:19:17.034Z,0